This is the latest recevied weather packets stored in our database for station/object OM8AKX-12. If no packets are shown the sender has not sent any weather packets the latest 10 day(s).
| Time | Temp. | Humidity | Pressure | Rain* | Wind** | Luminosity | Snow |
|---|---|---|---|---|---|---|---|
| 1787477752 | 23.33° C | 41% | 1016.3 hPa | - | - | - | - |
| 1787476852 | 23.33° C | 40% | 1016.2 hPa | - | - | - | - |
| 1787475053 | 22.22° C | 45% | 1016.3 hPa | - | - | - | - |
| 1787474155 | 21.11° C | 47% | 1016.4 hPa | - | - | - | - |
| 1787473252 | 21.11° C | 50% | 1016.5 hPa | - | - | - | - |
| 1787472351 | 21.11° C | 50% | 1016.5 hPa | - | - | - | - |
| 1787470551 | 20° C | 52% | 1016.6 hPa | - | - | - | - |
| 1787469651 | 19.44° C | 54% | 1016.5 hPa | - | - | - | - |
| 1787468751 | 18.89° C | 55% | 1016.4 hPa | - | - | - | - |
| 1787467851 | 18.89° C | 58% | 1016.4 hPa | - | - | - | - |
| 1787466951 | 17.78° C | 59% | 1016.5 hPa | - | - | - | - |
| 1787466051 | 17.78° C | 61% | 1016.5 hPa | - | - | - | - |
| 1787465151 | 17.22° C | 63% | 1016.4 hPa | - | - | - | - |
| 1787464251 | 16.67° C | 68% | 1016.4 hPa | - | - | - | - |
| 1787463351 | 16.11° C | 72% | 1016.4 hPa | - | - | - | - |
| 1787462452 | 15.56° C | 75% | 1016.2 hPa | - | - | - | - |
| 1787461551 | 15° C | 79% | 1016.1 hPa | - | - | - | - |
| 1787460652 | 13.89° C | 81% | 1016 hPa | - | - | - | - |
| 1787457951 | 12.78° C | 86% | 1015.6 hPa | - | - | - | - |
| 1787457050 | 12.78° C | 87% | 1015.4 hPa | - | - | - | - |
| 1787456151 | 12.22° C | 86% | 1015.4 hPa | - | - | - | - |
| 1787455251 | 12.78° C | 83% | 1015.4 hPa | - | - | - | - |
| 1787454351 | 13.33° C | 82% | 1015.1 hPa | - | - | - | - |
| 1787453450 | 12.78° C | 82% | 1014.9 hPa | - | - | - | - |
| 1787452550 | 13.33° C | 78% | 1014.9 hPa | - | - | - | - |
* Rain since midnight (hover to see other rain measurements)
** Current wind speed in m/s (hover to see current wind gust speed)